createdAt,value
2023-02-24T05:01:46.366Z,34.23
2023-02-24T05:04:18.058Z,28.60
2023-02-24T05:06:49.739Z,30.90
2023-02-24T05:09:21.383Z,23.00
2023-02-24T05:11:53.069Z,27.17
2023-02-24T05:14:24.775Z,28.90
2023-02-24T05:16:57.781Z,26.37
2023-02-24T05:19:29.505Z,28.30
2023-02-24T05:22:01.181Z,23.20
2023-02-24T05:24:32.960Z,27.63
2023-02-24T05:27:04.595Z,23.80
2023-02-24T05:29:36.786Z,18.73
2023-02-24T05:32:10.147Z,24.40
2023-02-24T05:34:41.889Z,25.83
2023-02-24T05:37:13.548Z,33.67
2023-02-24T05:39:45.217Z,27.50
2023-02-24T05:42:16.885Z,25.83
2023-02-24T05:44:48.578Z,21.60
2023-02-24T05:47:21.570Z,17.97
2023-02-24T05:49:53.251Z,23.37
2023-02-24T05:52:24.886Z,24.27
2023-02-24T05:54:56.576Z,21.50
2023-02-24T05:57:28.211Z,24.13
2023-02-24T05:59:59.906Z,22.17
2023-02-24T06:02:32.880Z,16.80
2023-02-24T06:05:05.230Z,16.67
2023-02-24T06:07:36.874Z,21.90
2023-02-24T06:10:09.935Z,25.83
2023-02-24T06:12:41.589Z,19.10
2023-02-24T06:15:13.319Z,23.07
2023-02-24T06:17:46.301Z,24.43
2023-02-24T06:20:18.128Z,28.47
2023-02-24T06:22:49.783Z,23.33
2023-02-24T06:25:21.587Z,19.23
2023-02-24T06:27:53.428Z,17.80
2023-02-24T06:30:25.260Z,22.23
2023-02-24T06:32:58.327Z,15.43
2023-02-24T06:35:30.027Z,23.73
2023-02-24T06:38:01.679Z,20.80
2023-02-24T06:40:33.530Z,13.17
2023-02-24T06:43:05.223Z,19.77
2023-02-24T06:45:36.942Z,16.90
2023-02-24T06:48:10.123Z,15.47
2023-02-24T06:50:42.227Z,26.00
2023-02-24T06:53:13.913Z,17.13
2023-02-24T06:55:45.728Z,24.63
2023-02-24T06:58:18.145Z,17.60
2023-02-24T07:00:50.141Z,21.73
2023-02-24T07:03:23.910Z,16.97
2023-02-24T07:05:55.621Z,21.93
2023-02-24T07:08:27.307Z,21.77
2023-02-24T07:10:59.097Z,15.33
2023-02-24T07:13:30.735Z,17.33
2023-02-24T07:16:02.619Z,17.60
2023-02-24T07:18:36.132Z,21.70
2023-02-24T07:21:08.054Z,29.87
2023-02-24T07:23:39.887Z,26.67
2023-02-24T07:26:12.770Z,21.60
2023-02-24T07:28:44.960Z,18.80
2023-02-24T07:31:17.994Z,24.43
2023-02-24T07:33:52.616Z,18.03
2023-02-24T07:36:24.416Z,27.33
2023-02-24T07:38:57.800Z,17.47
2023-02-24T07:41:31.267Z,19.60
2023-02-24T07:44:03.170Z,24.93
2023-02-24T07:46:34.890Z,15.10
2023-02-24T07:49:07.971Z,24.13
2023-02-24T07:51:39.646Z,17.90
2023-02-24T07:54:11.300Z,15.10
2023-02-24T07:56:42.975Z,16.30
2023-02-24T07:59:14.689Z,20.87
2023-02-24T08:01:46.352Z,21.77
2023-02-24T08:04:20.348Z,15.97
2023-02-24T08:06:52.110Z,14.83
2023-02-24T08:09:24.645Z,12.57
2023-02-24T08:11:56.329Z,14.97
2023-02-24T08:14:28.929Z,18.03
2023-02-24T08:17:01.497Z,21.43
2023-02-24T08:19:34.590Z,17.37
2023-02-24T08:22:07.214Z,22.90
2023-02-24T08:24:38.871Z,16.07
2023-02-24T08:27:10.514Z,19.07
2023-02-24T08:29:42.168Z,17.73
2023-02-24T08:32:13.916Z,16.13
2023-02-24T08:34:47.025Z,20.60
2023-02-24T08:37:18.672Z,17.53
2023-02-24T08:39:50.333Z,19.13
2023-02-24T08:42:21.973Z,16.63
2023-02-24T08:44:53.623Z,19.10
2023-02-24T08:47:25.322Z,15.07
2023-02-24T08:49:58.574Z,19.10
2023-02-24T08:52:32.208Z,19.83
2023-02-24T08:55:04.536Z,25.90
2023-02-24T08:57:36.173Z,16.30
2023-02-24T09:00:09.366Z,29.83
2023-02-24T09:02:41.012Z,18.57
2023-02-24T09:05:14.705Z,26.00
2023-02-24T09:07:46.442Z,22.47
2023-02-24T09:10:18.580Z,23.60
2023-02-24T09:12:50.241Z,19.50
2023-02-24T09:15:21.889Z,12.20
2023-02-24T09:17:53.542Z,22.77
2023-02-24T09:20:26.567Z,13.80
2023-02-24T09:22:58.396Z,18.97
2023-02-24T09:25:30.553Z,17.10
2023-02-24T09:28:05.503Z,15.23
2023-02-24T09:30:38.056Z,15.80
2023-02-24T09:33:12.203Z,14.57
2023-02-24T09:35:50.414Z,14.93
2023-02-24T09:38:22.254Z,22.40
2023-02-24T09:40:53.904Z,18.00
2023-02-24T09:43:27.544Z,16.10
2023-02-24T09:46:00.813Z,12.43
2023-02-24T09:48:37.823Z,15.40
2023-02-24T09:51:14.844Z,13.20
2023-02-24T09:53:47.009Z,11.93
2023-02-24T09:56:23.669Z,11.90
2023-02-24T09:59:00.840Z,15.87
2023-02-24T10:01:50.700Z,12.10
2023-02-24T10:04:48.079Z,12.47
2023-02-24T10:07:28.790Z,11.97
2023-02-24T10:10:02.526Z,14.60
2023-02-24T10:12:34.671Z,13.70
2023-02-24T10:15:11.277Z,9.37
2023-02-24T10:17:43.313Z,15.43
2023-02-24T10:20:16.062Z,11.20
2023-02-24T10:22:50.768Z,16.13
2023-02-24T10:25:29.598Z,11.37
2023-02-24T10:28:04.332Z,12.77
2023-02-24T10:30:42.840Z,10.87
2023-02-24T10:33:20.277Z,13.40
2023-02-24T10:36:03.832Z,12.67
2023-02-24T10:38:37.836Z,11.53
2023-02-24T10:41:09.586Z,7.67
2023-02-24T10:43:41.288Z,17.17
2023-02-24T10:46:38.586Z,11.13
2023-02-24T10:49:11.696Z,11.97
2023-02-24T10:51:48.071Z,12.50
2023-02-24T10:54:23.754Z,15.13
2023-02-24T10:56:55.528Z,12.10
2023-02-24T10:59:27.298Z,12.10
2023-02-24T11:02:01.932Z,12.77
2023-02-24T11:04:34.673Z,10.20
2023-02-24T11:07:07.198Z,10.87
2023-02-24T11:09:40.500Z,14.60
2023-02-24T11:12:14.564Z,10.90
2023-02-24T11:14:50.544Z,10.83
2023-02-24T11:17:22.627Z,12.57
2023-02-24T11:19:58.903Z,14.87
2023-02-24T11:22:32.645Z,13.43
2023-02-24T11:25:07.476Z,9.93
2023-02-24T11:27:40.864Z,21.67
2023-02-24T11:30:17.285Z,16.90
2023-02-24T11:33:03.438Z,14.63
2023-02-24T11:35:38.004Z,14.77
2023-02-24T11:38:19.175Z,10.20
2023-02-24T11:40:52.406Z,10.53
2023-02-24T11:43:25.263Z,12.47
2023-02-24T11:45:59.131Z,17.57
2023-02-24T11:48:32.416Z,12.63
2023-02-24T11:51:05.771Z,20.90
2023-02-24T11:53:41.283Z,18.67
2023-02-24T11:56:17.162Z,14.03
2023-02-24T11:58:50.690Z,13.80
2023-02-24T12:01:25.501Z,12.70
2023-02-24T12:04:04.981Z,16.40
2023-02-24T12:06:39.372Z,16.60
2023-02-24T12:09:12.989Z,14.23
2023-02-24T12:11:50.235Z,12.87
2023-02-24T12:14:25.661Z,20.83
2023-02-24T12:17:02.270Z,10.33
2023-02-24T12:19:35.566Z,14.03
2023-02-24T12:22:11.789Z,7.60
2023-02-24T12:24:46.484Z,12.57
2023-02-24T12:27:25.837Z,15.53
2023-02-24T12:30:16.366Z,14.83
2023-02-24T12:32:55.891Z,14.83
2023-02-24T12:35:32.577Z,16.63
2023-02-24T12:38:11.302Z,15.27
2023-02-24T12:40:45.005Z,15.37
2023-02-24T12:43:23.330Z,17.70
2023-02-24T12:45:59.701Z,15.53
2023-02-24T12:48:55.628Z,19.80
2023-02-24T12:51:28.583Z,13.60
2023-02-24T12:54:04.427Z,11.13
2023-02-24T12:56:41.444Z,10.50
2023-02-24T12:59:16.656Z,14.13
2023-02-24T13:01:51.353Z,21.47
2023-02-24T13:04:33.041Z,12.83
2023-02-24T13:07:09.737Z,15.57
2023-02-24T13:09:45.326Z,13.93
2023-02-24T13:12:18.218Z,15.00
2023-02-24T13:14:51.195Z,18.40
2023-02-24T13:17:24.315Z,15.20
2023-02-24T13:19:56.316Z,19.43
2023-02-24T13:22:29.165Z,17.63
2023-02-24T13:25:14.706Z,15.53
2023-02-24T13:27:54.848Z,12.00
2023-02-24T13:30:34.228Z,23.90
2023-02-24T13:33:21.964Z,12.90
2023-02-24T13:36:09.054Z,16.53
2023-02-24T13:38:41.897Z,14.70
2023-02-24T13:41:36.560Z,12.47
2023-02-24T13:44:25.179Z,12.90
2023-02-24T13:47:30.717Z,13.83
2023-02-24T13:50:17.752Z,14.60
2023-02-24T13:53:26.380Z,15.73
2023-02-24T13:56:10.761Z,15.30
2023-02-24T13:58:52.866Z,15.30
2023-02-24T14:01:25.001Z,11.00
2023-02-24T14:04:15.660Z,16.83
2023-02-24T14:06:48.568Z,11.83
2023-02-24T14:09:22.357Z,11.80
2023-02-24T14:11:57.054Z,17.40
2023-02-24T14:14:29.177Z,17.63
2023-02-24T14:17:00.834Z,13.07
2023-02-24T14:19:33.820Z,15.77
2023-02-24T14:22:05.480Z,13.67
2023-02-24T14:24:37.136Z,12.97
2023-02-24T14:27:19.635Z,16.57
2023-02-24T14:29:51.627Z,16.27
2023-02-24T14:32:24.452Z,13.97
2023-02-24T14:34:57.493Z,10.53
2023-02-24T14:37:30.525Z,12.57
2023-02-24T14:40:02.177Z,12.97
2023-02-24T14:42:33.860Z,15.90
2023-02-24T14:45:16.450Z,13.30
2023-02-24T14:47:48.127Z,12.27
2023-02-24T14:50:23.680Z,15.10
2023-02-24T14:52:57.009Z,10.93
2023-02-24T14:55:29.853Z,18.20
2023-02-24T14:58:03.047Z,19.97
2023-02-24T15:00:36.025Z,14.23
2023-02-24T15:03:12.193Z,14.60
2023-02-24T15:05:46.157Z,20.50
2023-02-24T15:08:31.314Z,17.10
2023-02-24T15:11:07.701Z,14.37
2023-02-24T15:13:40.992Z,14.07
2023-02-24T15:16:14.018Z,12.03
2023-02-24T15:18:49.416Z,15.73
2023-02-24T15:21:23.366Z,16.93
2023-02-24T15:23:59.095Z,15.47
2023-02-24T15:26:31.814Z,16.27
2023-02-24T15:29:12.078Z,14.00
2023-02-24T15:31:46.874Z,14.00
2023-02-24T15:34:19.770Z,14.67
2023-02-24T15:36:54.198Z,9.07
2023-02-24T15:39:27.624Z,11.07
2023-02-24T15:42:09.044Z,17.20
2023-02-24T15:44:40.711Z,13.23
2023-02-24T15:47:19.096Z,14.47
2023-02-24T15:49:50.815Z,13.43
2023-02-24T15:52:24.942Z,14.97
2023-02-24T15:54:56.593Z,14.80
2023-02-24T15:57:28.983Z,15.20
2023-02-24T16:00:00.702Z,18.13
2023-02-24T16:02:32.365Z,14.03
2023-02-24T16:05:05.724Z,17.37
2023-02-24T16:07:38.733Z,10.27
2023-02-24T16:10:16.175Z,10.83
2023-02-24T16:12:50.000Z,14.47
2023-02-24T16:15:24.145Z,15.03
2023-02-24T16:17:55.844Z,15.33
2023-02-24T16:20:28.750Z,14.77
2023-02-24T16:23:02.654Z,17.03
2023-02-24T16:25:37.900Z,13.63
2023-02-24T16:28:12.683Z,12.03
2023-02-24T16:30:44.670Z,12.33
2023-02-24T16:33:17.439Z,13.77
2023-02-24T16:35:49.444Z,12.50
2023-02-24T16:38:22.929Z,16.57
2023-02-24T16:40:54.920Z,12.17
2023-02-24T16:43:26.570Z,14.17
2023-02-24T16:46:01.274Z,12.47
2023-02-24T16:48:33.358Z,15.47
2023-02-24T16:51:05.524Z,13.20
2023-02-24T16:53:38.523Z,18.60
2023-02-24T16:56:10.231Z,16.87
2023-02-24T16:58:41.878Z,11.00
2023-02-24T17:01:16.114Z,12.17
2023-02-24T17:03:48.893Z,12.10
2023-02-24T17:06:22.318Z,16.10
2023-02-24T17:08:56.158Z,14.97
2023-02-24T17:11:28.130Z,14.97
2023-02-24T17:13:59.787Z,14.80
2023-02-24T17:16:31.504Z,14.57
2023-02-24T17:19:03.161Z,15.07
2023-02-24T17:21:34.849Z,21.80
2023-02-24T17:24:09.006Z,13.43
2023-02-24T17:26:40.655Z,18.10
2023-02-24T17:29:12.746Z,13.47
2023-02-24T17:31:44.522Z,20.87
2023-02-24T17:34:16.237Z,14.10
2023-02-24T17:36:47.886Z,15.20
2023-02-24T17:39:20.869Z,14.27
2023-02-24T17:41:52.526Z,17.43
2023-02-24T17:44:24.155Z,16.03
2023-02-24T17:46:55.835Z,19.80
2023-02-24T17:49:27.488Z,19.70
2023-02-24T17:51:59.161Z,19.57
2023-02-24T17:54:32.339Z,21.03
2023-02-24T17:57:04.010Z,18.20
2023-02-24T17:59:35.786Z,25.53
2023-02-24T18:02:07.492Z,17.07
2023-02-24T18:04:39.406Z,17.00
2023-02-24T18:07:11.451Z,21.43
2023-02-24T18:09:44.421Z,18.80
2023-02-24T18:12:16.073Z,20.40
2023-02-24T18:14:56.219Z,18.87
2023-02-24T18:17:44.026Z,19.13
2023-02-24T18:20:15.665Z,23.80
2023-02-24T18:22:47.361Z,20.37
2023-02-24T18:25:19.000Z,17.60
2023-02-24T18:27:50.664Z,14.30
2023-02-24T18:30:22.308Z,19.47
2023-02-24T18:32:55.525Z,26.50
2023-02-24T18:35:27.339Z,14.53
2023-02-24T18:37:59.006Z,16.23
2023-02-24T18:40:30.662Z,16.80
2023-02-24T18:43:02.316Z,17.20
2023-02-24T18:45:34.143Z,27.07
2023-02-24T18:48:07.168Z,17.97
2023-02-24T18:50:38.873Z,18.50
2023-02-24T18:53:10.523Z,19.70
2023-02-24T18:55:42.186Z,16.03
2023-02-24T18:58:13.873Z,18.37
2023-02-24T19:00:45.635Z,19.17
2023-02-24T19:03:18.680Z,20.27
2023-02-24T19:05:50.520Z,21.30
2023-02-24T19:08:22.153Z,21.47
2023-02-24T19:10:53.800Z,18.00
2023-02-24T19:13:25.455Z,18.43
2023-02-24T19:15:58.232Z,17.57
2023-02-24T19:18:31.386Z,18.90
2023-02-24T19:21:04.774Z,15.83
2023-02-24T19:23:36.951Z,10.87
2023-02-24T19:26:15.340Z,10.17
2023-02-24T19:28:47.005Z,16.37
2023-02-24T19:31:19.729Z,11.50
2023-02-24T19:33:53.140Z,10.40
2023-02-24T19:36:25.171Z,11.60
2023-02-24T19:38:57.081Z,12.17
2023-02-24T19:41:28.915Z,8.57
2023-02-24T19:44:00.578Z,12.30
2023-02-24T19:46:32.221Z,5.87
2023-02-24T19:49:05.228Z,6.77
2023-02-24T19:51:36.889Z,8.47
2023-02-24T19:54:11.106Z,11.63
2023-02-24T19:56:42.769Z,10.67
2023-02-24T19:59:14.398Z,9.63
2023-02-24T20:01:46.098Z,7.77
2023-02-24T20:04:19.100Z,6.33
2023-02-24T20:06:50.769Z,10.53
2023-02-24T20:09:22.405Z,10.17
2023-02-24T20:11:54.064Z,11.07
2023-02-24T20:14:27.202Z,14.60
2023-02-24T20:16:58.941Z,10.07
2023-02-24T20:19:31.976Z,10.33
2023-02-24T20:22:03.633Z,15.30
2023-02-24T20:24:35.270Z,12.37
2023-02-24T20:27:06.915Z,8.07
2023-02-24T20:29:38.599Z,11.87
2023-02-24T20:32:10.334Z,10.13
2023-02-24T20:34:43.622Z,8.27
2023-02-24T20:37:15.346Z,11.20
2023-02-24T20:39:47.021Z,11.97
2023-02-24T20:42:18.707Z,8.87
2023-02-24T20:44:50.357Z,13.47
2023-02-24T20:47:22.065Z,15.07
2023-02-24T20:49:55.109Z,10.10
2023-02-24T20:52:26.844Z,11.80
2023-02-24T20:54:58.511Z,12.07
2023-02-24T20:57:30.173Z,15.07
2023-02-24T21:00:03.844Z,9.33
2023-02-24T21:02:35.799Z,17.50
2023-02-24T21:05:09.003Z,10.67
2023-02-24T21:07:40.672Z,8.37
2023-02-24T21:10:12.586Z,11.10
2023-02-24T21:12:44.238Z,16.03
2023-02-24T21:15:15.969Z,12.03
2023-02-24T21:17:47.627Z,13.20
2023-02-24T21:20:20.810Z,11.93
2023-02-24T21:22:52.483Z,11.70
2023-02-24T21:25:24.226Z,13.33
2023-02-24T21:27:55.878Z,14.33
2023-02-24T21:30:27.613Z,12.80
2023-02-24T21:32:59.272Z,14.50
2023-02-24T21:35:32.251Z,11.53
2023-02-24T21:38:03.911Z,11.03
2023-02-24T21:40:37.694Z,11.03
2023-02-24T21:43:09.359Z,13.80
2023-02-24T21:45:40.990Z,12.53
2023-02-24T21:48:12.668Z,13.73
2023-02-24T21:50:45.690Z,8.87
2023-02-24T21:53:17.355Z,12.97
2023-02-24T21:55:49.391Z,18.07
2023-02-24T21:58:21.389Z,17.23
2023-02-24T22:00:53.449Z,16.67
2023-02-24T22:03:25.557Z,20.70
2023-02-24T22:05:58.925Z,20.47
2023-02-24T22:08:30.932Z,16.00
2023-02-24T22:11:02.951Z,16.03
2023-02-24T22:13:34.981Z,21.67
2023-02-24T22:16:07.409Z,18.40
2023-02-24T22:18:39.429Z,15.93
2023-02-24T22:21:13.162Z,17.97
2023-02-24T22:23:45.210Z,20.23
2023-02-24T22:26:17.472Z,21.53
2023-02-24T22:28:49.512Z,22.10
2023-02-24T22:31:21.990Z,20.00
2023-02-24T22:33:54.124Z,16.63
2023-02-24T22:36:27.866Z,16.93
2023-02-24T22:39:00.013Z,26.40
2023-02-24T22:41:32.411Z,18.53
2023-02-24T22:44:04.771Z,26.37
2023-02-24T22:46:37.959Z,18.73
2023-02-24T22:49:10.451Z,17.73
2023-02-24T22:51:43.469Z,16.83
2023-02-24T22:54:15.118Z,17.10
2023-02-24T22:56:46.947Z,21.40
2023-02-24T22:59:18.587Z,13.07
